Time;durP1;ratioP1;P1;durP2;ratioP2;P2;SDS_P1;SDS_P2;PMS_P1;PMS_P2;Temp;Humidity;BMP_temperature;BMP_pressure;BME280_temperature;BME280_humidity;BME280_pressure;Samples;Min_cycle;Max_cycle;Signal;HPM_P1;HPM_P2
2022/10/19 00:01:56;;;;;;;11.23;6.27;;;;;;;19.54;45.16;102996.50;5070066;28;20036;-73
2022/10/19 00:04:22;;;;;;;12.23;6.00;;;;;;;19.69;44.43;103000.69;5079448;28;20040;-73
2022/10/19 00:06:47;;;;;;;11.03;6.10;;;;;;;19.59;44.57;102994.63;5106200;28;20037;-74
2022/10/19 00:09:17;;;;;;;18.67;6.30;;;;;;;19.13;45.51;102989.03;5109337;28;20472;-73
2022/10/19 00:11:46;;;;;;;15.00;6.50;;;;;;;19.20;45.51;102999.56;5098691;28;20091;-73
2022/10/19 00:14:14;;;;;;;11.80;6.83;;;;;;;19.26;45.99;103003.03;5082903;28;20032;-73
2022/10/19 00:16:43;;;;;;;12.40;6.37;;;;;;;19.33;45.29;102986.13;5080336;28;20032;-73
2022/10/19 00:19:13;;;;;;;12.27;6.47;;;;;;;19.20;45.48;102994.25;5088487;28;20471;-73
2022/10/19 00:21:39;;;;;;;16.77;6.33;;;;;;;19.38;45.46;102986.06;5078181;28;20034;-73
2022/10/19 00:24:06;;;;;;;17.03;6.97;;;;;;;19.40;45.18;102997.53;5079471;28;20016;-73
2022/10/19 00:26:31;;;;;;;13.30;6.80;;;;;;;19.33;45.65;102990.56;5075653;28;20468;-73
2022/10/19 00:28:57;;;;;;;13.20;6.03;;;;;;;19.19;46.03;102989.84;5073893;28;20060;-73
2022/10/19 00:31:24;;;;;;;15.47;6.80;;;;;;;19.08;45.97;102992.63;5085953;28;20119;-73
2022/10/19 00:33:50;;;;;;;12.40;6.37;;;;;;;19.28;45.85;102990.59;5085381;28;20034;-73
2022/10/19 00:36:19;;;;;;;14.23;6.43;;;;;;;19.35;45.89;102987.91;5075433;28;20102;-73
2022/10/19 00:38:45;;;;;;;14.40;6.80;;;;;;;19.20;45.70;102994.25;5098423;28;20069;-73
2022/10/19 00:41:10;;;;;;;18.87;6.80;;;;;;;19.15;45.59;103000.50;5090195;28;20032;-73
2022/10/19 00:43:50;;;;;;;14.03;6.60;;;;;;;19.40;45.04;103004.59;5085889;28;20041;-73
2022/10/19 00:46:15;;;;;;;10.13;6.10;;;;;;;19.21;44.88;103001.31;5094638;28;20502;-73
2022/10/19 00:48:41;;;;;;;13.43;6.33;;;;;;;19.06;45.59;102997.94;5086698;28;20032;-73
2022/10/19 00:51:07;;;;;;;10.70;6.27;;;;;;;19.04;45.93;103002.41;5088210;28;20514;-73
2022/10/19 00:53:34;;;;;;;13.90;6.73;;;;;;;19.11;45.97;103005.81;5087709;28;20077;-73
2022/10/19 00:56:05;;;;;;;13.07;5.73;;;;;;;19.13;45.02;103007.56;5089161;28;20477;-73
2022/10/19 00:58:30;;;;;;;13.07;6.47;;;;;;;18.92;45.86;102997.25;5085151;28;20036;-73
2022/10/19 01:00:58;;;;;;;15.13;6.80;;;;;;;19.10;45.17;103007.63;5070607;28;20384;-73
2022/10/19 01:03:23;;;;;;;12.97;6.53;;;;;;;19.17;44.85;103002.25;5088907;28;20047;-73
2022/10/19 01:05:48;;;;;;;13.00;6.10;;;;;;;19.36;44.97;102993.19;5103323;27;20027;-73
2022/10/19 01:08:14;;;;;;;9.30;5.37;;;;;;;19.19;44.81;102987.19;5097813;27;20032;-73
2022/10/19 01:10:49;;;;;;;14.23;5.97;;;;;;;19.22;44.69;102990.69;5073184;28;20067;-73
2022/10/19 01:13:17;;;;;;;13.03;6.00;;;;;;;19.09;45.40;102989.09;5073515;28;20032;-73
2022/10/19 01:15:56;;;;;;;9.47;5.73;;;;;;;18.94;45.35;102990.13;5091707;28;20051;-73
2022/10/19 01:18:35;;;;;;;9.40;5.60;;;;;;;19.19;45.01;102988.06;5083327;28;20045;-73
2022/10/19 01:21:20;;;;;;;11.07;5.80;;;;;;;18.81;45.76;102990.22;5084769;28;20102;-73
2022/10/19 01:24:05;;;;;;;12.60;5.87;;;;;;;19.07;45.26;102985.56;5086771;28;20028;-73
2022/10/19 01:27:28;;;;;;;12.90;5.87;;;;;;;18.89;46.25;102986.66;5079889;28;20020;-73
2022/10/19 01:30:13;;;;;;;12.13;5.90;;;;;;;18.93;46.11;102983.97;5031950;28;20036;-73
2022/10/19 01:33:01;;;;;;;9.70;5.87;;;;;;;18.77;45.76;102983.22;5030037;28;20063;-73
2022/10/19 01:35:35;;;;;;;9.90;6.03;;;;;;;18.74;45.69;102975.31;5071084;28;20036;-73
2022/10/19 01:38:06;;;;;;;13.63;6.50;;;;;;;18.63;46.72;102977.19;5089684;28;20039;-73
2022/10/19 01:40:55;;;;;;;16.37;8.00;;;;;;;18.65;46.47;102978.91;5071612;28;20029;-73
2022/10/19 01:43:31;;;;;;;19.13;7.50;;;;;;;18.93;45.52;102972.47;5071625;28;20463;-73
2022/10/19 01:46:08;;;;;;;15.57;7.97;;;;;;;18.72;46.55;102974.44;5096824;27;20028;-73
2022/10/19 01:48:37;;;;;;;18.47;8.23;;;;;;;19.05;45.81;102967.03;5085327;28;20024;-73
2022/10/19 01:51:17;;;;;;;15.03;8.80;;;;;;;19.17;46.00;102971.31;5073393;28;20503;-73
2022/10/19 01:53:47;;;;;;;16.17;8.30;;;;;;;19.01;45.97;102969.75;5090826;28;20028;-73
2022/10/19 01:56:15;;;;;;;15.43;7.53;;;;;;;18.95;45.85;102973.34;5076981;28;20096;-73
2022/10/19 01:58:44;;;;;;;14.43;8.50;;;;;;;19.23;45.76;102975.66;5081977;28;20059;-72
2022/10/19 02:01:12;;;;;;;18.13;9.20;;;;;;;19.00;45.49;102966.22;5087634;28;20784;-72
2022/10/19 02:03:39;;;;;;;15.03;8.17;;;;;;;19.10;45.73;102967.00;5083427;28;20064;-72
2022/10/19 02:06:07;;;;;;;12.47;7.70;;;;;;;19.18;45.05;102972.19;5075581;28;20032;-72
2022/10/19 02:08:48;;;;;;;14.33;8.47;;;;;;;19.04;45.60;102970.59;5089355;27;20024;-73
2022/10/19 02:11:14;;;;;;;14.90;7.83;;;;;;;19.05;46.14;102974.97;5108364;28;20020;-73
2022/10/19 02:13:43;;;;;;;15.60;7.40;;;;;;;18.98;46.34;102973.31;5091168;28;20027;-73
2022/10/19 02:16:16;;;;;;;11.67;7.07;;;;;;;18.67;46.64;102970.97;5090342;28;20028;-73
2022/10/19 02:18:47;;;;;;;14.57;7.87;;;;;;;18.86;46.65;102966.31;5092018;28;20543;-73
2022/10/19 02:21:12;;;;;;;13.83;7.63;;;;;;;19.03;45.34;102958.22;5089840;28;20032;-72
2022/10/19 02:23:38;;;;;;;14.10;6.97;;;;;;;18.86;46.08;102949.56;5087054;28;20038;-73
2022/10/19 02:26:04;;;;;;;11.73;6.90;;;;;;;18.43;47.06;102946.47;5080305;28;20028;-73
2022/10/19 02:28:30;;;;;;;10.63;7.10;;;;;;;18.45;47.40;102944.69;5087450;28;20024;-73
2022/10/19 02:30:57;;;;;;;12.37;7.13;;;;;;;18.78;46.44;102942.59;5086975;28;20033;-72
2022/10/19 02:33:23;;;;;;;11.27;6.60;;;;;;;17.97;48.06;102942.44;5082021;28;20488;-72
2022/10/19 02:35:48;;;;;;;12.90;6.43;;;;;;;18.24;47.62;102939.59;5077464;28;20024;-72
2022/10/19 02:38:17;;;;;;;10.87;7.00;;;;;;;18.50;47.30;102935.81;5088889;28;20055;-73
2022/10/19 02:40:48;;;;;;;12.00;6.70;;;;;;;17.88;48.59;102931.91;5089865;28;20082;-72
2022/10/19 02:43:18;;;;;;;10.40;6.57;;;;;;;18.05;47.57;102929.19;5089119;28;20059;-73
2022/10/19 02:45:54;;;;;;;13.53;6.53;;;;;;;17.74;48.70;102931.13;5089275;28;20068;-72
2022/10/19 02:48:23;;;;;;;12.20;5.83;;;;;;;18.21;48.28;102936.97;5091471;28;20028;-72
2022/10/19 02:50:50;;;;;;;12.47;6.30;;;;;;;17.94;48.36;102944.22;5090533;28;20032;-72
2022/10/19 02:53:17;;;;;;;19.00;6.80;;;;;;;17.71;49.33;102934.69;5091594;28;20089;-72
2022/10/19 02:55:42;;;;;;;12.33;5.23;;;;;;;18.33;47.02;102928.94;5091095;28;20126;-72
2022/10/19 02:58:09;;;;;;;12.63;5.67;;;;;;;17.80;47.83;102924.03;5087405;28;20040;-72
2022/10/19 03:00:34;;;;;;;7.80;6.07;;;;;;;17.94;47.96;102920.41;5085586;28;20369;-72
2022/10/19 03:03:01;;;;;;;15.23;5.80;;;;;;;18.16;47.23;102920.25;5088533;28;20012;-72
2022/10/19 03:05:27;;;;;;;14.83;7.67;;;;;;;18.36;47.14;102915.66;5088863;28;20502;-73
2022/10/19 03:07:52;;;;;;;8.20;5.43;;;;;;;18.10;47.79;102919.41;5072947;28;20111;-73
2022/10/19 03:10:18;;;;;;;11.77;5.67;;;;;;;18.41;46.62;102919.13;5092569;28;20028;-72
2022/10/19 03:12:43;;;;;;;7.97;5.83;;;;;;;18.61;45.99;102921.56;5088440;28;20034;-73
2022/10/19 03:15:13;;;;;;;9.83;5.47;;;;;;;18.65;46.04;102919.78;5091551;28;20073;-72
2022/10/19 03:17:39;;;;;;;10.07;5.53;;;;;;;18.93;45.31;102919.47;5082213;28;20035;-73
2022/10/19 03:20:05;;;;;;;11.40;5.67;;;;;;;18.61;46.53;102923.34;5086820;28;20020;-72
2022/10/19 03:22:30;;;;;;;11.73;5.57;;;;;;;18.46;46.41;102927.91;5070878;28;20028;-73
2022/10/19 03:24:55;;;;;;;11.63;5.10;;;;;;;18.51;46.28;102919.06;5086324;28;20019;-73
2022/10/19 03:27:21;;;;;;;13.27;5.57;;;;;;;18.73;45.61;102923.22;5089919;28;20028;-72
2022/10/19 03:29:46;;;;;;;13.10;6.17;;;;;;;18.41;46.36;102919.13;5099192;28;20075;-72
2022/10/19 03:32:11;;;;;;;14.90;6.67;;;;;;;18.11;46.96;102913.22;5088248;28;20032;-73
2022/10/19 03:34:37;;;;;;;12.07;6.70;;;;;;;18.13;47.01;102906.16;5075053;28;20032;-73
2022/10/19 03:37:03;;;;;;;11.93;6.70;;;;;;;18.02;46.94;102908.00;5090550;28;20028;-73
2022/10/19 03:39:28;;;;;;;11.90;6.23;;;;;;;18.13;47.02;102914.13;5103397;28;20480;-73
2022/10/19 03:41:53;;;;;;;13.93;6.10;;;;;;;18.23;46.95;102911.34;5075162;28;20016;-72
2022/10/19 03:44:19;;;;;;;11.37;6.97;;;;;;;17.62;48.53;102908.28;5089493;28;20132;-72
2022/10/19 03:46:44;;;;;;;13.33;6.20;;;;;;;17.81;48.12;102909.91;5075703;28;20031;-72
2022/10/19 03:49:10;;;;;;;15.63;6.37;;;;;;;17.70;48.60;102906.47;5086799;28;20480;-72
2022/10/19 03:51:36;;;;;;;15.40;6.87;;;;;;;17.36;49.03;102911.97;5070053;28;20021;-72
2022/10/19 03:54:06;;;;;;;10.80;5.90;;;;;;;17.31;49.73;102903.19;5068943;28;20428;-72
2022/10/19 03:56:34;;;;;;;15.03;6.60;;;;;;;17.88;48.14;102899.28;5084521;28;20385;-72
2022/10/19 03:59:01;;;;;;;8.60;5.37;;;;;;;16.96;49.98;102904.22;5086971;28;20476;-72
2022/10/19 04:01:30;;;;;;;11.27;5.90;;;;;;;17.74;48.66;102905.56;5079447;28;20047;-72
2022/10/19 04:03:58;;;;;;;11.00;5.37;;;;;;;17.24;48.83;102912.03;5069913;28;20028;-72
2022/10/19 04:06:28;;;;;;;14.20;5.20;;;;;;;17.37;48.84;102913.72;5091494;28;20025;-72
2022/10/19 04:08:54;;;;;;;11.43;5.83;;;;;;;17.38;48.62;102910.19;5076003;28;20472;-72
2022/10/19 04:11:22;;;;;;;7.83;5.03;;;;;;;17.60;47.75;102912.72;5077214;28;20039;-72
2022/10/19 04:13:49;;;;;;;10.63;5.57;;;;;;;17.68;46.84;102916.19;5088949;28;20020;-72
2022/10/19 04:16:15;;;;;;;7.57;4.90;;;;;;;17.96;47.48;102908.06;5085707;28;20418;-72
2022/10/19 04:18:40;;;;;;;12.60;5.27;;;;;;;17.86;47.52;102909.00;5085767;28;20028;-72
2022/10/19 04:21:06;;;;;;;15.63;5.60;;;;;;;18.10;46.98;102903.53;5089448;28;20534;-72
2022/10/19 04:23:34;;;;;;;9.93;4.93;;;;;;;17.68;46.84;102902.97;5076168;28;20511;-72
2022/10/19 04:26:01;;;;;;;10.33;5.20;;;;;;;17.27;48.09;102906.75;5070309;28;20027;-72
2022/10/19 04:28:27;;;;;;;12.00;4.63;;;;;;;17.69;47.44;102899.41;5089948;28;20073;-72
2022/10/19 04:30:53;;;;;;;9.17;4.80;;;;;;;17.64;47.12;102895.94;5096623;28;20024;-73
2022/10/19 04:33:18;;;;;;;6.80;4.53;;;;;;;17.21;48.52;102896.19;5086123;28;20119;-72
2022/10/19 04:35:43;;;;;;;12.83;5.30;;;;;;;16.90;49.38;102897.22;5093003;28;20086;-72
2022/10/19 04:38:09;;;;;;;11.93;4.83;;;;;;;17.41;48.13;102896.97;5096979;28;20043;-72
2022/10/19 04:40:37;;;;;;;11.93;4.43;;;;;;;17.16;48.22;102900.63;5090385;28;20028;-72
2022/10/19 04:43:03;;;;;;;9.50;4.60;;;;;;;17.68;46.98;102897.69;5091739;28;20563;-72
2022/10/19 04:45:28;;;;;;;10.03;4.40;;;;;;;17.64;46.81;102906.53;5090883;28;20028;-73
2022/10/19 04:47:57;;;;;;;9.17;4.90;;;;;;;17.52;47.15;102901.31;5082691;28;20488;-73
2022/10/19 04:50:23;;;;;;;11.20;5.10;;;;;;;17.64;46.65;102906.53;5078763;28;20539;-73
2022/10/19 04:52:48;;;;;;;10.57;5.17;;;;;;;17.26;47.39;102916.41;5090816;28;20510;-72
2022/10/19 04:55:14;;;;;;;11.63;4.60;;;;;;;17.75;47.09;102915.25;5075282;28;20044;-72
2022/10/19 04:57:39;;;;;;;10.17;4.40;;;;;;;18.09;46.36;102901.78;5072347;28;20024;-73
2022/10/19 05:00:05;;;;;;;11.27;5.30;;;;;;;18.01;45.94;102902.72;5088921;28;20024;-72
2022/10/19 05:02:31;;;;;;;13.77;5.00;;;;;;;18.09;46.01;102909.72;5084212;28;20024;-72
2022/10/19 05:04:56;;;;;;;12.17;4.67;;;;;;;17.97;46.13;102909.84;5088664;28;20033;-72
2022/10/19 05:07:22;;;;;;;11.20;4.70;;;;;;;17.93;46.11;102908.09;5090787;28;20024;-73
2022/10/19 05:09:47;;;;;;;12.17;4.37;;;;;;;17.66;46.29;102906.50;5080163;28;20021;-73
2022/10/19 05:12:13;;;;;;;10.33;4.43;;;;;;;17.69;46.19;102902.06;5089789;28;20027;-72
2022/10/19 05:14:38;;;;;;;11.77;4.63;;;;;;;17.71;46.62;102902.94;5076447;28;20040;-72
2022/10/19 05:17:03;;;;;;;8.80;4.90;;;;;;;17.61;46.62;102898.59;5077283;28;20020;-72
2022/10/19 05:19:29;;;;;;;11.77;4.90;;;;;;;18.06;45.96;102893.88;5101273;28;20023;-73
2022/10/19 05:21:54;;;;;;;6.70;3.87;;;;;;;17.94;46.18;102899.25;5095069;28;20712;-73
2022/10/19 05:24:19;;;;;;;7.13;4.60;;;;;;;17.94;45.76;102900.16;5082172;28;20016;-72
2022/10/19 05:26:45;;;;;;;8.80;4.70;;;;;;;17.21;46.99;102896.19;5091043;28;20396;-73
2022/10/19 05:29:12;;;;;;;11.13;4.60;;;;;;;17.13;46.93;102894.47;5073042;28;20032;-72
2022/10/19 05:31:37;;;;;;;7.93;4.27;;;;;;;17.55;46.74;102882.78;5089545;28;20115;-72
2022/10/19 05:34:03;;;;;;;8.63;4.23;;;;;;;17.50;46.53;102892.50;5096631;27;20717;-72
2022/10/19 05:36:33;;;;;;;11.60;4.67;;;;;;;17.79;45.92;102890.53;5081588;28;20028;-72
2022/10/19 05:39:01;;;;;;;7.07;3.83;;;;;;;17.38;47.29;102902.28;5071790;28;20028;-73
2022/10/19 05:41:27;;;;;;;13.10;4.57;;;;;;;17.70;46.52;102902.94;5091786;28;20110;-73
2022/10/19 05:43:54;;;;;;;8.97;4.20;;;;;;;17.80;45.92;102910.81;5102442;28;20111;-73
2022/10/19 05:46:20;;;;;;;11.97;5.10;;;;;;;17.72;46.05;102894.13;5096644;27;20119;-72
2022/10/19 05:48:46;;;;;;;8.73;4.77;;;;;;;17.74;46.20;102896.75;5076391;28;20468;-73
2022/10/19 05:51:15;;;;;;;8.97;4.50;;;;;;;17.29;47.11;102889.09;5091836;28;20035;-72
2022/10/19 05:53:41;;;;;;;8.33;4.30;;;;;;;17.37;46.60;102892.56;5091447;28;20024;-73
2022/10/19 05:56:11;;;;;;;12.13;4.80;;;;;;;17.61;46.27;102885.38;5090577;28;20101;-73
2022/10/19 05:58:36;;;;;;;16.90;5.30;;;;;;;17.45;46.14;102881.97;5093357;28;20103;-73
2022/10/19 06:01:02;;;;;;;9.20;4.50;;;;;;;17.34;46.51;102882.03;5107766;27;20127;-73
2022/10/19 06:03:28;;;;;;;10.40;4.87;;;;;;;16.78;48.01;102879.59;5091547;28;20240;-73
2022/10/19 06:05:55;;;;;;;9.47;4.77;;;;;;;17.08;47.49;102876.88;5093725;28;20028;-73
2022/10/19 06:08:22;;;;;;;7.53;4.27;;;;;;;17.09;47.13;102866.31;5091504;28;20083;-73
2022/10/19 06:10:48;;;;;;;8.53;4.60;;;;;;;16.63;48.52;102877.00;5090754;28;20032;-73
2022/10/19 06:13:14;;;;;;;9.93;4.53;;;;;;;16.19;49.59;102880.63;5091033;28;20035;-73
2022/10/19 06:15:40;;;;;;;9.30;4.80;;;;;;;16.39;49.53;102868.28;5091625;28;20077;-73
2022/10/19 06:18:07;;;;;;;8.47;4.63;;;;;;;16.38;49.37;102876.22;5088626;28;20438;-73
2022/10/19 06:20:39;;;;;;;11.83;5.00;;;;;;;17.07;47.86;102857.50;5089893;28;20499;-73
2022/10/19 06:23:04;;;;;;;8.83;4.93;;;;;;;16.67;48.83;102872.63;5086763;28;20110;-73
2022/10/19 06:25:31;;;;;;;12.30;5.20;;;;;;;16.44;49.41;102873.53;5093264;28;20024;-73
2022/10/19 06:27:57;;;;;;;10.77;5.27;;;;;;;17.03;48.27;102860.19;5076387;28;20069;-73
2022/10/19 06:30:22;;;;;;;8.60;4.87;;;;;;;16.64;48.97;102868.22;5092477;28;20028;-73
2022/10/19 06:32:48;;;;;;;8.93;4.80;;;;;;;16.44;49.68;102871.81;5087675;28;20036;-73
2022/10/19 06:35:14;;;;;;;7.53;4.30;;;;;;;16.66;48.91;102870.84;5086869;28;20044;-72
2022/10/19 06:37:40;;;;;;;13.93;4.97;;;;;;;17.27;48.13;102864.47;5080075;28;20459;-73
2022/10/19 06:40:06;;;;;;;10.87;5.10;;;;;;;16.96;48.56;102876.03;5091298;28;20032;-73
2022/10/19 06:42:31;;;;;;;16.20;4.57;;;;;;;16.65;49.05;102875.28;5085026;28;20035;-72
2022/10/19 06:44:57;;;;;;;14.97;4.63;;;;;;;17.07;48.46;102870.72;5081273;28;20033;-73
2022/10/19 06:47:22;;;;;;;11.63;4.90;;;;;;;16.63;48.74;102871.75;5082988;28;20092;-72
2022/10/19 06:49:47;;;;;;;13.13;4.73;;;;;;;16.91;48.87;102876.94;5088891;28;20054;-73
2022/10/19 06:52:13;;;;;;;9.50;4.80;;;;;;;17.19;48.19;102883.00;5090316;28;20039;-73
2022/10/19 06:54:38;;;;;;;14.30;4.37;;;;;;;17.60;47.47;102878.34;5088714;28;20090;-74
2022/10/19 06:57:03;;;;;;;9.73;4.53;;;;;;;17.17;47.49;102890.03;5091697;28;20496;-73
2022/10/19 06:59:29;;;;;;;11.00;5.10;;;;;;;17.68;46.68;102881.81;5097680;27;20022;-73
2022/10/19 07:01:54;;;;;;;12.90;4.43;;;;;;;17.98;46.41;102874.53;5090543;28;20031;-73
2022/10/19 07:04:19;;;;;;;9.70;4.30;;;;;;;17.78;46.74;102869.41;5093470;28;20119;-73
2022/10/19 07:06:45;;;;;;;10.30;4.67;;;;;;;17.89;46.33;102869.31;5086048;28;20110;-73
2022/10/19 07:09:10;;;;;;;8.00;4.30;;;;;;;17.81;46.54;102867.59;5090174;28;21928;-73
2022/10/19 07:11:36;;;;;;;11.43;4.20;;;;;;;17.19;48.53;102863.63;5101016;28;20042;-73
2022/10/19 07:14:01;;;;;;;8.40;3.87;;;;;;;17.93;46.29;102861.34;5087500;28;20028;-73
2022/10/19 07:16:26;;;;;;;6.57;4.23;;;;;;;18.03;46.25;102862.16;5089358;28;20031;-73
2022/10/19 07:18:52;;;;;;;15.40;4.83;;;;;;;17.96;46.09;102863.09;5090608;28;20039;-72
2022/10/19 07:21:19;;;;;;;8.17;4.43;;;;;;;17.89;46.18;102867.53;5089847;28;20039;-72
2022/10/19 07:23:46;;;;;;;10.30;4.30;;;;;;;18.09;46.27;102877.97;5088711;28;20027;-72
2022/10/19 07:26:34;;;;;;;12.80;4.63;;;;;;;17.95;46.80;102878.06;5088983;28;20070;-72
2022/10/19 07:28:59;;;;;;;9.27;4.87;;;;;;;18.21;46.28;102886.69;5095187;28;20032;-72
2022/10/19 07:31:27;;;;;;;12.60;4.60;;;;;;;18.34;45.72;102877.75;5089299;28;20031;-72
2022/10/19 07:33:58;;;;;;;11.70;4.10;;;;;;;17.64;47.06;102890.66;5094193;28;20028;-72
2022/10/19 07:36:24;;;;;;;11.33;4.23;;;;;;;18.09;46.32;102877.97;5091653;28;20057;-72
2022/10/19 07:38:50;;;;;;;11.47;4.30;;;;;;;18.02;46.80;102885.97;5122805;27;20032;-72
2022/10/19 07:41:18;;;;;;;17.83;5.53;;;;;;;17.92;46.96;102896.63;5074106;28;20039;-72
2022/10/19 07:43:45;;;;;;;8.27;4.10;;;;;;;17.88;47.15;102884.28;5084128;28;20396;-72
2022/10/19 07:46:13;;;;;;;12.17;4.30;;;;;;;18.09;46.13;102893.84;5088631;28;20038;-71
2022/10/19 07:48:39;;;;;;;8.03;3.70;;;;;;;18.56;45.91;102888.97;5078435;28;20042;-71
2022/10/19 07:51:06;;;;;;;8.27;4.37;;;;;;;17.79;47.41;102877.31;5084689;28;20050;-70
2022/10/19 07:53:33;;;;;;;10.00;4.50;;;;;;;17.79;47.46;102874.66;5089144;28;20032;-71
2022/10/19 07:56:07;;;;;;;12.90;4.27;;;;;;;17.66;48.21;102875.63;5090041;28;20059;-72
2022/10/19 07:58:33;;;;;;;11.43;4.33;;;;;;;18.04;47.45;102865.66;5089159;28;20051;-71
2022/10/19 08:01:03;;;;;;;9.93;4.63;;;;;;;18.19;47.90;102872.56;5089045;28;20028;-71
2022/10/19 08:03:29;;;;;;;7.93;3.97;;;;;;;16.62;51.20;102880.53;5089695;28;20039;-71
2022/10/19 08:06:03;;;;;;;15.10;4.73;;;;;;;16.99;51.11;102875.16;5090496;28;20447;-71
2022/10/19 08:08:28;;;;;;;10.60;3.90;;;;;;;16.75;51.16;102866.41;5073566;28;20047;-71
2022/10/19 08:10:54;;;;;;;15.30;4.03;;;;;;;17.02;51.22;102875.16;5093561;28;20600;-70
2022/10/19 08:13:20;;;;;;;12.77;4.10;;;;;;;17.11;51.21;102869.81;5093675;28;20030;-71
2022/10/19 08:15:46;;;;;;;9.70;3.83;;;;;;;17.25;51.03;102861.78;5093677;28;20024;-71
2022/10/19 08:18:11;;;;;;;12.57;4.10;;;;;;;18.09;49.32;102856.81;5095394;28;20059;-71
2022/10/19 08:20:39;;;;;;;9.53;3.67;;;;;;;17.97;49.55;102859.56;5092052;28;20411;-72
2022/10/19 08:23:05;;;;;;;9.57;3.93;;;;;;;17.90;49.45;102861.34;5093691;28;20032;-71
2022/10/19 08:25:30;;;;;;;7.50;4.10;;;;;;;18.00;49.38;102856.88;5093252;28;20365;-71
2022/10/19 08:27:55;;;;;;;9.43;3.87;;;;;;;17.48;52.03;102857.28;5093920;28;20023;-71
2022/10/19 08:30:21;;;;;;;6.90;3.60;;;;;;;17.58;51.67;102837.81;5092121;28;20032;-71
2022/10/19 08:32:46;;;;;;;8.53;3.00;;;;;;;17.72;51.79;102835.94;5092583;28;20657;-72
2022/10/19 08:35:12;;;;;;;10.17;3.80;;;;;;;18.17;51.11;102827.59;5092393;28;20085;-71
2022/10/19 08:37:37;;;;;;;7.93;3.33;;;;;;;17.62;52.27;102821.03;5093948;28;20418;-72
2022/10/19 08:40:03;;;;;;;9.43;2.93;;;;;;;17.67;53.03;102816.59;5093047;28;20063;-71
2022/10/19 08:42:52;;;;;;;13.60;3.70;;;;;;;18.62;50.45;102817.38;5094658;28;20027;-71
2022/10/19 08:45:40;;;;;;;10.13;3.30;;;;;;;18.88;49.79;102810.91;5093636;28;20024;-72
2022/10/19 08:48:35;;;;;;;11.53;2.80;;;;;;;19.22;48.21;102807.78;5093330;28;20489;-72
2022/10/19 08:51:01;;;;;;;6.80;2.80;;;;;;;19.25;48.32;102798.91;5088822;28;20032;-71
2022/10/19 08:53:48;;;;;;;9.20;3.10;;;;;;;19.34;48.56;102809.34;5093359;28;20028;-72
2022/10/19 08:56:35;;;;;;;8.87;2.87;;;;;;;19.01;49.96;102808.97;5090947;28;20051;-71
2022/10/19 08:59:27;;;;;;;9.73;2.93;;;;;;;19.80;48.60;102824.56;5086510;28;20024;-72
2022/10/19 09:02:12;;;;;;;7.97;2.43;;;;;;;20.22;46.95;102825.56;5108143;27;20024;-72
2022/10/19 09:04:48;;;;;;;9.77;2.50;;;;;;;19.34;48.02;102817.31;5087110;28;20383;-71
2022/10/19 09:07:16;;;;;;;12.83;2.53;;;;;;;20.07;47.11;102816.13;5090860;28;20110;-71
2022/10/19 09:09:45;;;;;;;9.07;2.87;;;;;;;19.46;48.10;102813.59;5088295;28;20493;-72
2022/10/19 09:12:16;;;;;;;6.07;2.10;;;;;;;18.84;50.04;102813.59;5087211;28;20028;-71
2022/10/19 09:14:57;;;;;;;7.23;2.33;;;;;;;19.15;48.76;102819.34;5092639;28;20115;-71
2022/10/19 09:17:24;;;;;;;6.27;2.17;;;;;;;19.08;49.36;102813.28;5086177;28;20472;-71
2022/10/19 09:19:50;;;;;;;7.57;1.93;;;;;;;20.29;46.82;102809.50;5106133;28;20028;-71
2022/10/19 09:22:23;;;;;;;9.00;2.07;;;;;;;19.80;47.66;102813.94;5086874;28;20036;-71
2022/10/19 09:25:12;;;;;;;7.03;2.25;;;;;;;20.95;45.90;102817.00;5090335;28;20032;-71
2022/10/19 09:27:39;;;;;;;7.37;1.87;;;;;;;21.11;44.71;102829.03;5109118;28;20032;-71
2022/10/19 09:30:20;;;;;;;8.07;2.40;;;;;;;21.39;44.51;102823.09;5108730;28;20032;-72
2022/10/19 09:32:48;;;;;;;7.55;1.95;;;;;;;21.17;45.72;102823.59;5092336;28;20522;-72
2022/10/19 09:35:36;;;;;;;6.55;1.98;;;;;;;21.17;44.67;102822.72;5092192;28;20028;-71
2022/10/19 09:38:04;;;;;;;8.23;2.20;;;;;;;21.12;44.80;102832.59;5090820;28;20038;-71
2022/10/19 09:40:30;;;;;;;8.88;1.80;;;;;;;21.79;43.16;102816.81;5092621;28;20039;-72
2022/10/19 09:42:57;;;;;;;8.05;1.83;;;;;;;21.54;44.18;102826.31;5092245;28;20023;-72
2022/10/19 09:45:39;;;;;;;6.78;1.98;;;;;;;21.10;44.69;102822.00;5090850;28;20085;-71
2022/10/19 09:48:17;;;;;;;4.93;1.42;;;;;;;21.52;43.55;102813.91;5091197;28;20502;-71
2022/10/19 09:50:43;;;;;;;2.63;1.40;;;;;;;20.87;44.16;102803.91;5091295;28;20040;-71
2022/10/19 09:53:18;;;;;;;2.17;1.30;;;;;;;21.65;43.59;102802.97;5088091;28;20031;-72
2022/10/19 09:55:50;;;;;;;5.63;1.75;;;;;;;21.79;43.50;102800.84;5088527;28;20039;-71
2022/10/19 09:58:19;;;;;;;7.07;2.00;;;;;;;20.10;45.66;102795.72;5097896;27;20198;-70
2022/10/19 10:00:44;;;;;;;9.35;2.08;;;;;;;21.23;44.54;102788.00;5094307;28;20024;-71
2022/10/19 10:03:33;;;;;;;3.78;1.48;;;;;;;20.33;44.57;102786.41;5089485;28;20035;-71
2022/10/19 10:06:19;;;;;;;5.70;1.55;;;;;;;20.63;43.91;102762.78;5093621;28;20027;-73
2022/10/19 10:08:47;;;;;;;5.38;2.00;;;;;;;20.86;44.03;102766.75;5109852;27;20055;-71
2022/10/19 10:11:14;;;;;;;8.18;1.80;;;;;;;21.49;43.20;102749.25;5086039;28;20434;-71
2022/10/19 10:13:51;;;;;;;8.82;1.65;;;;;;;21.47;43.34;102746.66;5084372;28;20074;-71
2022/10/19 10:16:22;;;;;;;6.93;1.30;;;;;;;21.45;42.47;102748.47;5075996;28;20054;-71
2022/10/19 10:19:17;;;;;;;6.38;1.52;;;;;;;20.13;44.81;102747.88;5081172;28;20036;-71
2022/10/19 10:21:47;;;;;;;4.75;1.05;;;;;;;20.94;43.77;102740.88;5075223;28;20043;-71
2022/10/19 10:24:13;;;;;;;8.45;1.40;;;;;;;20.55;42.75;102746.13;5103021;28;20027;-71
2022/10/19 10:26:49;;;;;;;4.00;1.17;;;;;;;21.87;41.00;102739.38;5091311;28;20395;-71
2022/10/19 10:29:19;;;;;;;4.68;1.20;;;;;;;21.76;41.63;102737.06;5092400;28;20383;-71
2022/10/19 10:31:46;;;;;;;3.13;1.50;;;;;;;21.22;42.86;102735.72;5090664;28;20033;-71
2022/10/19 10:34:21;;;;;;;6.75;1.48;;;;;;;21.06;43.69;102740.56;5090512;28;20066;-71
2022/10/19 10:36:50;;;;;;;3.80;1.23;;;;;;;21.19;42.28;102736.69;5085995;28;20030;-71
2022/10/19 10:39:16;;;;;;;5.32;1.20;;;;;;;21.99;42.31;102732.88;5092300;28;20015;-71
2022/10/19 10:41:43;;;;;;;4.28;1.60;;;;;;;21.93;42.01;102722.41;5089715;28;20039;-71
2022/10/19 10:44:20;;;;;;;6.00;1.58;;;;;;;21.37;42.97;102718.53;5089162;28;20499;-71
2022/10/19 10:47:00;;;;;;;6.22;1.42;;;;;;;22.03;41.57;102713.22;5089582;28;20038;-70
2022/10/19 10:49:33;;;;;;;8.07;1.60;;;;;;;22.12;41.61;102712.97;5090329;28;20105;-71
2022/10/19 10:52:04;;;;;;;7.47;1.27;;;;;;;21.70;41.61;102694.63;5090079;28;20024;-70
2022/10/19 10:54:31;;;;;;;8.45;1.95;;;;;;;21.30;42.12;102695.66;5089922;28;20356;-71
2022/10/19 10:57:19;;;;;;;5.15;1.27;;;;;;;21.31;41.57;102686.78;5089799;28;20040;-71
2022/10/19 11:00:01;;;;;;;4.18;1.27;;;;;;;21.89;40.88;102694.13;5088844;28;20036;-71
2022/10/19 11:02:38;;;;;;;6.50;1.58;;;;;;;22.28;40.70;102681.41;5105789;28;20059;-71
2022/10/19 11:05:29;;;;;;;6.25;1.20;;;;;;;21.50;41.11;102677.41;5090186;28;20028;-71
2022/10/19 11:08:24;;;;;;;4.55;1.63;;;;;;;22.16;40.71;102676.44;5090897;28;20047;-71
2022/10/19 11:11:05;;;;;;;9.13;1.63;;;;;;;22.01;40.51;102676.00;5084618;28;20069;-71
2022/10/19 11:14:18;;;;;;;7.00;1.60;;;;;;;22.83;39.26;102678.84;5090107;28;20388;-71
2022/10/19 11:16:46;;;;;;;6.95;1.45;;;;;;;22.36;40.10;102673.22;5073217;28;20036;-71
2022/10/19 11:19:24;;;;;;;2.72;1.10;;;;;;;21.52;41.18;102680.00;5090459;28;20028;-71
2022/10/19 11:21:59;;;;;;;5.07;1.08;;;;;;;22.30;39.96;102670.72;5086986;28;20065;-71
2022/10/19 11:25:05;;;;;;;12.18;1.20;;;;;;;22.28;40.05;102665.44;5088107;28;20107;-72
2022/10/19 11:27:42;;;;;;;6.97;1.30;;;;;;;22.84;37.48;102661.91;5066642;28;20042;-71
2022/10/19 11:30:12;;;;;;;9.88;1.10;;;;;;;22.56;38.18;102659.28;5089032;28;20474;-72
2022/10/19 11:32:56;;;;;;;8.52;1.15;;;;;;;23.04;37.54;102657.75;5089804;28;20032;-71
2022/10/19 11:35:24;;;;;;;4.65;1.55;;;;;;;23.71;36.18;102646.50;5091558;28;20081;-71